createdAt,value
2022-12-18T00:02:24.841Z,90.61
2022-12-18T00:04:51.654Z,91.09
2022-12-18T00:07:18.282Z,91.17
2022-12-18T00:09:44.930Z,90.83
2022-12-18T00:14:45.217Z,91.01
2022-12-18T00:17:12.131Z,90.38
2022-12-18T00:19:38.788Z,90.51
2022-12-18T00:22:06.148Z,90.75
2022-12-18T00:24:32.950Z,90.30
2022-12-18T00:26:59.577Z,91.27
2022-12-18T00:29:26.197Z,90.52
2022-12-18T00:31:52.942Z,91.31
2022-12-18T00:34:19.837Z,91.45
2022-12-18T00:36:48.752Z,91.52
2022-12-18T00:39:15.530Z,90.49
2022-12-18T00:42:00.671Z,91.13
2022-12-18T01:03:21.394Z,90.91
2022-12-18T01:05:48.025Z,90.74
2022-12-18T01:08:14.767Z,90.09
2022-12-18T01:10:42.679Z,90.95
2022-12-18T01:13:09.556Z,90.93
2022-12-18T01:15:38.007Z,91.11
2022-12-18T01:18:06.039Z,91.23
2022-12-18T01:20:32.890Z,91.07
2022-12-18T01:44:57.984Z,91.29
2022-12-18T01:47:36.481Z,91.28
2022-12-18T01:50:17.306Z,90.24
2022-12-18T01:52:47.841Z,90.26
2022-12-18T01:55:17.828Z,90.58
2022-12-18T01:57:44.724Z,90.31
2022-12-18T02:00:18.233Z,90.40
2022-12-18T02:02:46.945Z,89.92
2022-12-18T02:05:17.589Z,90.95
2022-12-18T02:08:02.687Z,91.21
2022-12-18T02:10:48.600Z,91.07
2022-12-18T02:13:25.186Z,90.24
2022-12-18T02:16:05.596Z,90.08
2022-12-18T02:18:39.495Z,90.80
2022-12-18T02:21:13.650Z,91.45
2022-12-18T02:42:34.418Z,89.90
2022-12-18T02:45:01.035Z,90.61
2022-12-18T02:47:34.935Z,90.69
2022-12-18T02:50:20.282Z,90.81
2022-12-18T02:53:10.089Z,90.76
2022-12-18T02:56:05.949Z,90.30
2022-12-18T02:59:00.516Z,91.09
2022-12-18T03:01:38.595Z,89.83
2022-12-18T03:23:08.520Z,90.68
2022-12-18T03:25:38.791Z,90.82
2022-12-18T03:28:09.707Z,90.34
2022-12-18T03:30:41.358Z,91.08
2022-12-18T03:33:18.958Z,89.66
2022-12-18T03:35:45.717Z,90.37
2022-12-18T03:38:12.915Z,90.46
2022-12-18T03:41:14.894Z,90.23
2022-12-18T04:02:30.179Z,90.16
2022-12-18T04:05:01.687Z,89.93
2022-12-18T04:07:28.991Z,90.95
2022-12-18T04:09:57.978Z,90.53
2022-12-18T04:12:30.933Z,91.00
2022-12-18T04:14:57.599Z,90.18
2022-12-18T04:17:24.949Z,90.76
2022-12-18T04:19:51.896Z,90.53
2022-12-18T04:22:18.978Z,90.90
2022-12-18T05:02:33.503Z,90.16
2022-12-18T05:05:00.195Z,90.00
2022-12-18T05:07:26.915Z,89.86
2022-12-18T05:09:53.616Z,90.08
2022-12-18T05:12:20.306Z,90.05
2022-12-18T05:14:46.965Z,90.80
2022-12-18T05:17:13.816Z,90.84
2022-12-18T05:19:40.515Z,89.87
2022-12-18T05:22:08.961Z,90.00
2022-12-18T05:24:35.701Z,89.77
2022-12-18T05:27:02.431Z,90.16
2022-12-18T05:29:29.081Z,89.73
2022-12-18T05:31:55.885Z,90.55
2022-12-18T05:34:22.548Z,90.40
2022-12-18T05:36:49.693Z,90.32
2022-12-18T05:39:16.427Z,89.93
2022-12-18T05:41:43.125Z,90.27
2022-12-18T05:44:10.112Z,90.10
2022-12-18T05:46:37.581Z,89.98
2022-12-18T05:49:04.301Z,90.47
2022-12-18T05:51:30.988Z,90.03
2022-12-18T05:53:57.691Z,90.61
2022-12-18T05:56:24.671Z,89.99
2022-12-18T05:58:55.162Z,90.34
2022-12-18T06:01:25.179Z,90.59
2022-12-18T06:03:52.282Z,90.76
2022-12-18T06:06:18.965Z,90.76
2022-12-18T06:08:46.932Z,90.30
2022-12-18T06:11:14.397Z,91.07
2022-12-18T06:13:41.436Z,89.92
2022-12-18T06:16:09.242Z,90.83
2022-12-18T06:18:36.221Z,90.88
2022-12-18T06:21:03.143Z,90.58
2022-12-18T06:23:29.935Z,91.38
2022-12-18T06:25:56.913Z,90.26
2022-12-18T06:28:23.777Z,90.03
2022-12-18T06:30:51.986Z,90.18
2022-12-18T06:33:18.892Z,91.13
2022-12-18T06:35:45.756Z,90.80
2022-12-18T06:38:12.483Z,90.87
2022-12-18T06:40:40.434Z,90.78
2022-12-18T07:04:43.127Z,91.05
2022-12-18T07:07:09.877Z,90.68
2022-12-18T07:09:36.708Z,90.98
2022-12-18T07:12:03.562Z,90.38
2022-12-18T07:14:30.228Z,90.70
2022-12-18T07:16:57.013Z,91.36
2022-12-18T07:19:23.986Z,90.57
2022-12-18T07:21:51.811Z,91.18
2022-12-18T07:43:05.230Z,91.16
2022-12-18T07:45:32.034Z,91.48
2022-12-18T07:47:58.691Z,91.25
2022-12-18T07:50:25.391Z,90.99
2022-12-18T07:52:52.147Z,90.90
2022-12-18T07:55:18.759Z,91.42
2022-12-18T07:57:56.376Z,91.88
2022-12-18T08:00:25.995Z,91.29
2022-12-18T08:02:52.816Z,91.33
2022-12-18T08:24:07.273Z,91.05
2022-12-18T08:26:33.951Z,91.62
2022-12-18T08:29:01.075Z,90.61
2022-12-18T08:31:29.811Z,90.65
2022-12-18T08:33:57.129Z,91.70
2022-12-18T08:36:24.946Z,91.41
2022-12-18T08:38:52.990Z,91.06
2022-12-18T08:41:20.470Z,91.21
2022-12-18T08:44:06.424Z,91.56
2022-12-18T08:46:42.107Z,90.93
2022-12-18T09:01:49.217Z,90.78
2022-12-18T09:06:46.318Z,90.47
2022-12-18T09:09:13.659Z,91.56
2022-12-18T09:19:38.784Z,91.46
2022-12-18T09:22:05.397Z,90.20
2022-12-18T09:24:32.194Z,91.37
2022-12-18T09:26:59.103Z,90.87
2022-12-18T09:33:18.772Z,90.38
2022-12-18T09:35:47.142Z,90.81
2022-12-18T09:38:19.950Z,90.50
2022-12-18T09:40:53.875Z,90.18
2022-12-18T10:05:13.041Z,86.83
2022-12-18T10:07:48.497Z,85.54
2022-12-18T10:10:21.556Z,86.49
2022-12-18T10:13:02.578Z,87.38
2022-12-18T10:15:46.423Z,87.31
2022-12-18T10:18:36.923Z,86.95
2022-12-18T10:21:14.680Z,86.56
2022-12-18T10:24:11.550Z,87.08
2022-12-18T10:26:38.343Z,87.13
2022-12-18T10:29:26.281Z,87.68
2022-12-18T10:31:53.140Z,87.18
2022-12-18T10:34:19.754Z,87.14
2022-12-18T10:36:48.694Z,87.03
2022-12-18T11:15:30.898Z,84.81
2022-12-18T11:17:58.028Z,85.19
2022-12-18T11:20:35.808Z,85.13
2022-12-18T11:23:07.584Z,85.20
2022-12-18T11:25:37.933Z,85.08
2022-12-18T11:28:29.066Z,85.26
2022-12-18T11:31:28.974Z,85.94
2022-12-18T11:34:30.508Z,85.14
2022-12-18T11:37:02.004Z,85.21
2022-12-18T11:40:41.567Z,85.73
2022-12-18T11:43:16.073Z,85.45
2022-12-18T11:45:52.943Z,85.22
2022-12-18T11:48:40.535Z,85.47
2022-12-18T11:51:16.829Z,86.28
2022-12-18T11:53:43.538Z,86.04
2022-12-18T11:56:26.752Z,86.82
2022-12-18T11:59:05.306Z,86.40
2022-12-18T12:01:56.722Z,86.33
2022-12-18T12:04:55.933Z,86.42
2022-12-18T12:07:49.690Z,86.47
2022-12-18T12:10:42.434Z,86.30
2022-12-18T12:13:40.711Z,86.69
2022-12-18T12:16:24.265Z,87.14
2022-12-18T12:19:27.889Z,86.70
2022-12-18T12:21:59.272Z,86.55
2022-12-18T12:24:49.958Z,87.30
2022-12-18T12:27:19.475Z,87.27
2022-12-18T12:30:00.965Z,87.39
2022-12-18T12:32:47.952Z,87.57
2022-12-18T12:35:35.891Z,87.37
2022-12-18T12:38:08.515Z,87.45
2022-12-18T12:40:52.663Z,87.88
2022-12-18T12:43:33.778Z,87.58
2022-12-18T12:46:05.562Z,87.19
2022-12-18T12:48:46.814Z,87.26
2022-12-18T12:51:26.690Z,87.68
2022-12-18T12:53:55.710Z,87.46
2022-12-18T12:56:24.474Z,87.34
2022-12-18T12:59:00.449Z,87.15
2022-12-18T13:01:52.454Z,86.56
2022-12-18T13:04:30.143Z,87.68
2022-12-18T13:07:09.725Z,87.85
2022-12-18T13:10:17.889Z,87.38
2022-12-18T13:13:07.224Z,87.45
2022-12-18T13:16:03.789Z,87.35
2022-12-18T13:18:30.862Z,87.33
2022-12-18T13:21:03.285Z,87.13
2022-12-18T13:23:34.658Z,87.09
2022-12-18T13:26:28.738Z,86.92
2022-12-18T13:28:58.223Z,87.28
2022-12-18T13:31:30.938Z,86.82
2022-12-18T13:34:26.946Z,86.92
2022-12-18T13:36:58.401Z,86.79
2022-12-18T13:39:35.165Z,86.14
2022-12-18T13:42:08.998Z,85.52
2022-12-18T13:44:42.629Z,85.66
2022-12-18T13:47:34.269Z,85.51
2022-12-18T13:50:06.286Z,85.29
2022-12-18T13:52:40.422Z,85.24
2022-12-18T13:55:17.294Z,85.19
2022-12-18T13:57:44.182Z,84.85
2022-12-18T14:00:23.456Z,84.36
2022-12-18T14:02:51.662Z,84.24
2022-12-18T14:05:27.767Z,83.83
2022-12-18T14:07:55.142Z,83.64
2022-12-18T14:10:48.251Z,84.06
2022-12-18T14:13:16.132Z,83.71
2022-12-18T14:15:47.666Z,83.61
2022-12-18T14:18:36.635Z,83.21
2022-12-18T14:21:04.933Z,83.10
2022-12-18T14:23:37.558Z,83.06
2022-12-18T14:26:31.417Z,83.52
2022-12-18T14:29:02.180Z,82.94
2022-12-18T14:31:31.353Z,82.83
2022-12-18T14:33:58.537Z,82.54
2022-12-18T14:36:27.906Z,82.54
2022-12-18T14:38:59.623Z,82.20
2022-12-18T14:41:27.431Z,81.71
2022-12-18T14:43:55.816Z,81.51
2022-12-18T14:46:35.744Z,81.66
2022-12-18T14:49:26.363Z,81.49
2022-12-18T14:51:56.628Z,80.86
2022-12-18T14:54:26.025Z,80.58
2022-12-18T14:57:02.651Z,81.14
2022-12-18T14:59:30.969Z,81.08
2022-12-18T15:02:16.037Z,80.76
2022-12-18T15:04:45.023Z,80.94
2022-12-18T15:07:21.218Z,80.61
2022-12-18T15:10:19.815Z,79.92
2022-12-18T15:13:17.851Z,79.80
2022-12-18T15:15:56.454Z,79.71
2022-12-18T15:18:46.659Z,79.11
2022-12-18T15:21:19.680Z,78.89
2022-12-18T15:23:57.833Z,78.64
2022-12-18T15:26:24.657Z,78.14
2022-12-18T15:44:24.442Z,75.95
2022-12-18T15:47:25.896Z,76.55
2022-12-18T15:53:20.865Z,76.03
2022-12-18T15:56:10.247Z,75.92
2022-12-18T15:59:19.065Z,75.74
2022-12-18T16:04:55.308Z,75.53
2022-12-18T16:07:22.984Z,75.46
2022-12-18T16:09:51.820Z,74.88
2022-12-18T16:12:24.928Z,74.88
2022-12-18T16:14:51.859Z,74.93
2022-12-18T16:17:18.562Z,74.69
2022-12-18T16:19:45.344Z,75.07
2022-12-18T16:22:22.375Z,74.28
2022-12-18T16:24:50.277Z,74.55
2022-12-18T16:27:17.040Z,74.17
2022-12-18T16:29:44.830Z,74.16
2022-12-18T16:32:19.633Z,73.76
2022-12-18T16:34:47.181Z,74.18
2022-12-18T16:37:16.948Z,74.06
2022-12-18T16:39:43.906Z,74.26
2022-12-18T16:42:17.553Z,73.83
2022-12-18T16:47:25.832Z,73.44
2022-12-18T16:57:51.853Z,73.12
2022-12-18T17:02:52.097Z,73.14
2022-12-18T17:05:18.908Z,72.57
2022-12-18T17:07:45.764Z,72.94
2022-12-18T17:10:12.483Z,72.67
2022-12-18T17:12:39.183Z,72.85
2022-12-18T17:15:06.467Z,72.83
2022-12-18T17:17:33.194Z,72.91
2022-12-18T17:20:00.203Z,72.90
2022-12-18T17:22:27.220Z,72.87
2022-12-18T17:24:54.030Z,73.19
2022-12-18T17:27:20.742Z,72.79
2022-12-18T17:29:48.819Z,73.30
2022-12-18T17:32:17.598Z,73.12
2022-12-18T17:34:44.347Z,73.36
2022-12-18T17:37:11.089Z,73.25
2022-12-18T17:39:38.525Z,72.67
2022-12-18T17:42:17.157Z,73.33
2022-12-18T18:00:56.259Z,73.48
2022-12-18T18:03:23.204Z,73.16
2022-12-18T18:08:26.193Z,72.69
2022-12-18T18:13:47.429Z,72.50
2022-12-18T18:16:14.331Z,72.96
2022-12-18T18:18:41.281Z,73.15
2022-12-18T18:21:09.772Z,72.06
2022-12-18T18:23:37.399Z,72.57
2022-12-18T18:39:29.406Z,72.51
2022-12-18T18:41:56.337Z,72.67
2022-12-18T18:44:25.623Z,73.01
2022-12-18T18:46:57.632Z,72.71
2022-12-18T18:49:28.016Z,72.40
2022-12-18T18:51:56.111Z,72.51
2022-12-18T18:54:23.381Z,73.39
2022-12-18T19:02:09.105Z,73.20
2022-12-18T19:04:40.876Z,73.83
2022-12-18T19:07:13.338Z,73.79
2022-12-18T19:09:41.888Z,73.78
2022-12-18T19:12:36.395Z,73.52
2022-12-18T19:15:06.601Z,73.45
2022-12-18T19:17:34.100Z,73.72
2022-12-18T19:20:02.084Z,73.68
2022-12-18T19:22:31.814Z,73.74
2022-12-18T19:24:58.767Z,73.73
2022-12-18T19:27:25.720Z,73.84
2022-12-18T19:29:52.465Z,74.17
2022-12-18T19:32:19.203Z,74.25
2022-12-18T19:34:46.289Z,74.36
2022-12-18T19:37:14.810Z,74.53
2022-12-18T19:39:41.676Z,74.64
2022-12-18T19:42:11.088Z,74.90
2022-12-18T19:47:15.081Z,74.08
2022-12-18T19:49:42.032Z,74.15
2022-12-18T19:52:11.549Z,74.50
2022-12-18T19:55:49.573Z,74.69
2022-12-18T19:58:17.020Z,74.90
2022-12-18T20:00:44.136Z,74.96
2022-12-18T20:03:23.493Z,75.18
2022-12-18T20:05:55.798Z,74.87
2022-12-18T20:08:23.117Z,75.06
2022-12-18T20:10:54.862Z,74.93
2022-12-18T20:13:22.430Z,74.34
2022-12-18T20:15:49.567Z,74.56
2022-12-18T20:18:16.811Z,74.52
2022-12-18T20:20:44.793Z,74.20
2022-12-18T20:23:16.468Z,74.39
2022-12-18T20:25:43.644Z,74.44
2022-12-18T20:28:10.859Z,74.22
2022-12-18T20:30:42.171Z,74.50
2022-12-18T20:33:11.270Z,74.89
2022-12-18T20:35:38.321Z,74.92
2022-12-18T20:38:05.301Z,75.18
2022-12-18T20:40:34.268Z,75.34
2022-12-18T20:45:37.495Z,75.73
2022-12-18T20:48:46.976Z,76.05
2022-12-18T20:51:21.283Z,76.11
2022-12-18T20:53:52.891Z,75.94
2022-12-18T20:56:22.143Z,76.32
2022-12-18T20:58:50.534Z,76.47
2022-12-18T21:01:25.857Z,76.83
2022-12-18T21:03:53.187Z,76.37
2022-12-18T21:25:21.841Z,76.84
2022-12-18T21:27:48.531Z,76.67
2022-12-18T21:30:15.511Z,77.48
2022-12-18T21:32:45.855Z,76.73
2022-12-18T21:35:12.717Z,76.76
2022-12-18T21:37:39.441Z,76.71
2022-12-18T21:40:07.867Z,76.70
2022-12-18T21:42:53.474Z,76.72
2022-12-18T21:45:22.859Z,76.53
2022-12-18T21:47:49.716Z,77.40
2022-12-18T21:50:16.418Z,77.57
2022-12-18T21:52:43.162Z,78.23
2022-12-18T21:55:10.633Z,78.75
2022-12-18T21:57:39.451Z,80.08
2022-12-18T22:00:07.940Z,80.63
2022-12-18T22:02:36.084Z,81.44
2022-12-18T22:05:02.854Z,81.95
2022-12-18T22:07:30.124Z,82.51
2022-12-18T22:09:56.789Z,83.15
2022-12-18T22:12:43.260Z,84.74
2022-12-18T22:15:11.630Z,84.83
2022-12-18T22:17:40.011Z,85.16
2022-12-18T22:20:09.361Z,85.61
2022-12-18T22:22:36.230Z,86.43
2022-12-18T23:10:57.007Z,89.68
2022-12-18T23:13:24.006Z,89.26
2022-12-18T23:15:50.952Z,89.55
2022-12-18T23:18:18.053Z,89.64
2022-12-18T23:20:44.819Z,89.84
2022-12-18T23:23:12.829Z,89.99
2022-12-18T23:25:41.433Z,89.90
2022-12-18T23:28:08.198Z,90.74
2022-12-18T23:30:35.155Z,90.31
2022-12-18T23:33:01.897Z,90.67
2022-12-18T23:35:29.954Z,90.43
2022-12-18T23:37:58.833Z,90.85
2022-12-18T23:40:25.966Z,91.04
2022-12-18T23:42:52.712Z,90.91
2022-12-18T23:45:19.475Z,90.95
2022-12-18T23:47:47.978Z,91.74
2022-12-18T23:50:18.188Z,91.19
2022-12-18T23:52:44.861Z,91.16
2022-12-18T23:55:11.732Z,91.45
2022-12-18T23:57:38.352Z,91.75
